createdAt,value
2023-03-07T00:00:06.511Z,53.36
2023-03-07T00:00:56.552Z,53.32
2023-03-07T00:01:46.623Z,53.09
2023-03-07T00:02:36.685Z,53.56
2023-03-07T00:03:26.824Z,53.22
2023-03-07T00:04:16.822Z,53.46
2023-03-07T00:05:06.875Z,53.98
2023-03-07T00:05:56.905Z,53.74
2023-03-07T00:06:46.960Z,53.51
2023-03-07T00:07:36.990Z,53.23
2023-03-07T00:08:27.022Z,53.44
2023-03-07T00:09:17.119Z,53.54
2023-03-07T00:10:07.136Z,53.72
2023-03-07T00:10:57.216Z,53.60
2023-03-07T00:11:47.257Z,53.43
2023-03-07T00:12:37.324Z,53.53
2023-03-07T00:13:27.367Z,53.07
2023-03-07T00:14:17.425Z,53.19
2023-03-07T00:15:07.466Z,53.34
2023-03-07T00:15:57.603Z,53.60
2023-03-07T00:16:47.585Z,53.35
2023-03-07T00:17:37.655Z,53.76
2023-03-07T00:18:27.657Z,53.08
2023-03-07T00:19:17.743Z,53.40
2023-03-07T00:20:07.777Z,53.87
2023-03-07T00:20:57.819Z,53.69
2023-03-07T00:21:47.855Z,53.63
2023-03-07T00:22:37.938Z,53.74
2023-03-07T00:23:27.967Z,53.47
2023-03-07T00:24:18.048Z,53.36
2023-03-07T00:25:08.074Z,53.79
2023-03-07T00:25:58.150Z,53.88
2023-03-07T00:26:48.444Z,53.62
2023-03-07T00:27:38.520Z,53.83
2023-03-07T00:28:28.584Z,54.04
2023-03-07T00:29:18.944Z,53.76
2023-03-07T00:30:08.974Z,53.55
2023-03-07T00:30:59.012Z,53.77
2023-03-07T00:31:49.196Z,54.08
2023-03-07T00:32:39.226Z,53.88
2023-03-07T00:33:29.205Z,53.77
2023-03-07T00:34:19.285Z,53.69
2023-03-07T00:35:09.318Z,54.02
2023-03-07T00:35:59.476Z,54.00
2023-03-07T00:36:49.480Z,53.93
2023-03-07T00:37:39.550Z,53.90
2023-03-07T00:38:29.575Z,53.74
2023-03-07T00:39:19.674Z,54.00
2023-03-07T00:40:09.694Z,53.81
2023-03-07T00:40:59.771Z,53.74
2023-03-07T00:41:49.812Z,53.80
2023-03-07T00:42:39.880Z,53.63
2023-03-07T00:43:29.915Z,53.75
2023-03-07T00:44:20.008Z,53.96
2023-03-07T00:45:10.040Z,53.66
2023-03-07T00:46:00.190Z,53.72
2023-03-07T00:46:50.154Z,53.91
2023-03-07T00:47:40.204Z,54.10
2023-03-07T00:48:30.234Z,54.28
2023-03-07T00:49:20.305Z,54.36
2023-03-07T00:50:10.319Z,53.90
2023-03-07T00:51:00.377Z,54.12
2023-03-07T00:51:50.448Z,54.25
2023-03-07T00:52:40.521Z,53.89
2023-03-07T00:53:30.552Z,54.15
2023-03-07T00:54:20.653Z,53.87
2023-03-07T00:55:10.686Z,54.30
2023-03-07T00:56:00.733Z,54.43
2023-03-07T00:56:50.799Z,54.38
2023-03-07T00:57:40.879Z,53.97
2023-03-07T00:58:31.152Z,54.10
2023-03-07T00:59:21.199Z,54.04
2023-03-07T01:00:11.237Z,53.99
2023-03-07T01:01:01.349Z,54.13
2023-03-07T01:01:51.352Z,53.96
2023-03-07T01:02:41.430Z,54.18
2023-03-07T01:03:31.456Z,54.35
2023-03-07T01:04:21.570Z,54.20
2023-03-07T01:05:11.569Z,54.03
2023-03-07T01:06:01.623Z,54.47
2023-03-07T01:06:51.660Z,54.38
2023-03-07T01:07:42.006Z,53.91
2023-03-07T01:08:32.036Z,53.94
2023-03-07T01:09:22.132Z,54.05
2023-03-07T01:10:12.162Z,53.78
2023-03-07T01:11:02.241Z,54.30
2023-03-07T01:11:52.273Z,54.15
2023-03-07T01:12:42.321Z,53.88
2023-03-07T01:13:32.349Z,53.84
2023-03-07T01:14:22.441Z,53.84
2023-03-07T01:15:12.470Z,54.27
2023-03-07T01:16:02.507Z,54.35
2023-03-07T01:16:52.661Z,54.25
2023-03-07T01:17:42.612Z,54.41
2023-03-07T01:18:32.643Z,54.37
2023-03-07T01:19:22.705Z,53.79
2023-03-07T01:20:12.742Z,54.09
2023-03-07T01:21:02.892Z,54.23
2023-03-07T01:21:52.892Z,54.22
2023-03-07T01:22:42.977Z,53.91
2023-03-07T01:23:33.005Z,54.26
2023-03-07T01:24:23.059Z,54.38
2023-03-07T01:25:13.091Z,53.81
2023-03-07T01:26:03.172Z,54.08
2023-03-07T01:26:53.236Z,54.06
2023-03-07T01:27:43.315Z,54.35
2023-03-07T01:28:33.352Z,54.12
2023-03-07T01:29:23.422Z,54.31
2023-03-07T01:30:13.441Z,54.43
2023-03-07T01:31:03.483Z,54.26
2023-03-07T01:31:53.613Z,54.53
2023-03-07T01:32:43.604Z,54.74
2023-03-07T01:33:33.640Z,54.32
2023-03-07T01:34:23.734Z,54.32
2023-03-07T01:35:13.768Z,54.57
2023-03-07T01:36:03.977Z,54.29
2023-03-07T01:36:53.964Z,54.62
2023-03-07T01:37:43.960Z,54.27
2023-03-07T01:38:34.030Z,54.33
2023-03-07T01:39:24.092Z,54.58
2023-03-07T01:40:14.128Z,54.77
2023-03-07T01:41:04.201Z,54.49
2023-03-07T01:41:54.233Z,54.60
2023-03-07T01:42:44.309Z,54.33
2023-03-07T01:43:34.339Z,54.44
2023-03-07T01:44:24.429Z,54.36
2023-03-07T01:45:14.462Z,54.28
2023-03-07T01:46:04.671Z,54.74
2023-03-07T01:46:54.631Z,54.67
2023-03-07T01:47:44.665Z,54.50
2023-03-07T01:48:34.696Z,54.40
2023-03-07T01:49:24.792Z,54.28
2023-03-07T01:50:14.922Z,54.27
2023-03-07T01:51:04.890Z,54.46
2023-03-07T01:51:54.933Z,54.63
2023-03-07T01:52:45.018Z,54.33
2023-03-07T01:53:35.036Z,54.47
2023-03-07T01:54:25.146Z,54.52
2023-03-07T01:55:15.182Z,54.71
2023-03-07T01:56:05.222Z,54.74
2023-03-07T01:56:55.251Z,54.68
2023-03-07T01:57:45.334Z,54.46
2023-03-07T01:58:35.375Z,54.63
2023-03-07T01:59:25.430Z,54.68
2023-03-07T02:00:15.465Z,54.64
2023-03-07T02:01:05.626Z,54.65
2023-03-07T02:01:55.589Z,54.56
2023-03-07T02:02:45.622Z,54.53
2023-03-07T02:03:35.946Z,54.67
2023-03-07T02:04:26.126Z,54.57
2023-03-07T02:05:16.073Z,54.48
2023-03-07T02:06:06.427Z,54.39
2023-03-07T02:06:56.460Z,54.46
2023-03-07T02:07:46.541Z,54.27
2023-03-07T02:08:36.590Z,54.18
2023-03-07T02:09:26.671Z,54.43
2023-03-07T02:10:16.712Z,54.49
2023-03-07T02:11:06.786Z,54.32
2023-03-07T02:11:56.824Z,54.22
2023-03-07T02:12:48.284Z,54.23
2023-03-07T02:13:36.895Z,54.58
2023-03-07T02:14:26.952Z,54.92
2023-03-07T02:15:17.002Z,54.88
2023-03-07T02:16:07.124Z,54.67
2023-03-07T02:16:57.109Z,54.80
2023-03-07T02:17:47.222Z,54.68
2023-03-07T02:18:37.217Z,54.67
2023-03-07T02:19:27.305Z,54.36
2023-03-07T02:20:17.333Z,54.27
2023-03-07T02:21:07.411Z,54.44
2023-03-07T02:21:57.443Z,54.41
2023-03-07T02:22:47.496Z,54.68
2023-03-07T02:23:37.527Z,54.49
2023-03-07T02:24:27.650Z,55.02
2023-03-07T02:25:17.666Z,54.66
2023-03-07T02:26:07.750Z,54.86
2023-03-07T02:26:57.779Z,54.39
2023-03-07T02:27:47.825Z,54.55
2023-03-07T02:28:37.860Z,54.27
2023-03-07T02:29:27.949Z,54.51
2023-03-07T02:30:17.974Z,54.43
2023-03-07T02:31:08.143Z,54.41
2023-03-07T02:31:58.084Z,54.43
2023-03-07T02:32:48.199Z,54.61
2023-03-07T02:33:38.209Z,54.23
2023-03-07T02:34:28.298Z,54.41
2023-03-07T02:35:18.325Z,54.51
2023-03-07T02:36:08.407Z,54.77
2023-03-07T02:36:58.435Z,54.76
2023-03-07T02:37:48.509Z,54.48
2023-03-07T02:38:38.545Z,54.78
2023-03-07T02:39:28.615Z,54.60
2023-03-07T02:40:18.764Z,54.48
2023-03-07T02:41:08.709Z,54.45
2023-03-07T02:41:58.743Z,54.43
2023-03-07T02:42:48.830Z,54.35
2023-03-07T02:43:38.862Z,54.29
2023-03-07T02:44:28.963Z,54.43
2023-03-07T02:45:19.048Z,54.40
2023-03-07T02:46:09.139Z,54.18
2023-03-07T02:46:59.130Z,54.57
2023-03-07T02:47:49.209Z,54.39
2023-03-07T02:48:39.477Z,54.52
2023-03-07T02:49:29.523Z,54.45
2023-03-07T02:50:19.547Z,54.70
2023-03-07T02:51:09.594Z,54.57
2023-03-07T02:51:59.633Z,54.42
2023-03-07T02:52:49.671Z,54.38
2023-03-07T02:53:39.719Z,54.33
2023-03-07T02:54:29.808Z,54.45
2023-03-07T02:55:19.839Z,54.27
2023-03-07T02:56:10.024Z,54.62
2023-03-07T02:56:59.984Z,54.78
2023-03-07T02:57:50.060Z,54.38
2023-03-07T02:58:40.092Z,54.48
2023-03-07T02:59:30.160Z,54.36
2023-03-07T03:00:20.221Z,54.11
2023-03-07T03:01:10.267Z,54.28
2023-03-07T03:02:00.318Z,55.28
2023-03-07T03:02:50.341Z,54.62
2023-03-07T03:03:40.376Z,54.39
2023-03-07T03:04:30.469Z,54.38
2023-03-07T03:05:20.455Z,54.36
2023-03-07T03:06:10.536Z,54.78
2023-03-07T03:07:00.612Z,54.68
2023-03-07T03:07:50.684Z,55.05
2023-03-07T03:08:40.734Z,54.42
2023-03-07T03:09:30.824Z,54.07
2023-03-07T03:10:20.862Z,54.57
2023-03-07T03:11:11.196Z,54.75
2023-03-07T03:12:01.297Z,54.65
2023-03-07T03:12:51.303Z,54.88
2023-03-07T03:13:41.340Z,54.10
2023-03-07T03:14:31.408Z,54.73
2023-03-07T03:15:21.440Z,54.58
2023-03-07T03:16:11.528Z,54.66
2023-03-07T03:17:01.514Z,54.50
2023-03-07T03:17:51.649Z,54.29
2023-03-07T03:18:41.685Z,54.50
2023-03-07T03:19:31.779Z,54.60
2023-03-07T03:20:21.805Z,54.62
2023-03-07T03:21:11.850Z,54.98
2023-03-07T03:22:01.880Z,54.47
2023-03-07T03:22:51.932Z,54.70
2023-03-07T03:23:41.964Z,54.47
2023-03-07T03:24:32.070Z,54.87
2023-03-07T03:25:22.099Z,54.52
2023-03-07T03:26:12.181Z,54.47
2023-03-07T03:27:02.231Z,54.36
2023-03-07T03:27:52.300Z,54.33
2023-03-07T03:28:42.326Z,54.76
2023-03-07T03:29:32.396Z,54.61
2023-03-07T03:30:22.400Z,54.58
2023-03-07T03:31:12.577Z,54.37
2023-03-07T03:32:02.628Z,54.68
2023-03-07T03:32:52.637Z,54.69
2023-03-07T03:33:42.676Z,54.58
2023-03-07T03:34:32.756Z,54.50
2023-03-07T03:35:22.795Z,54.67
2023-03-07T03:36:12.833Z,54.47
2023-03-07T03:37:02.869Z,54.41
2023-03-07T03:37:52.962Z,54.25
2023-03-07T03:38:43.007Z,54.51
2023-03-07T03:39:33.094Z,54.30
2023-03-07T03:40:23.116Z,54.64
2023-03-07T03:41:13.165Z,54.48
2023-03-07T03:42:03.194Z,54.37
2023-03-07T03:42:53.250Z,54.46
2023-03-07T03:43:43.316Z,54.48
2023-03-07T03:44:33.396Z,54.67
2023-03-07T03:45:23.420Z,55.05
2023-03-07T03:46:13.569Z,54.54
2023-03-07T03:47:03.520Z,54.34
2023-03-07T03:47:53.558Z,54.42
2023-03-07T03:48:43.593Z,54.73
2023-03-07T03:49:33.673Z,54.67
2023-03-07T03:50:23.709Z,54.40
2023-03-07T03:51:13.791Z,54.71
2023-03-07T03:52:03.824Z,54.52
2023-03-07T03:52:53.873Z,54.91
2023-03-07T03:53:43.909Z,54.72
2023-03-07T03:54:33.970Z,54.55
2023-03-07T03:55:24.008Z,54.42
2023-03-07T03:56:14.055Z,54.18
2023-03-07T03:57:04.095Z,54.30
2023-03-07T03:57:54.183Z,54.21
2023-03-07T03:58:44.228Z,54.31
2023-03-07T03:59:34.315Z,54.52
2023-03-07T04:00:24.321Z,54.46
2023-03-07T04:01:14.381Z,54.59
2023-03-07T04:02:04.491Z,54.88
2023-03-07T04:02:54.610Z,54.58
2023-03-07T04:03:44.529Z,54.56
2023-03-07T04:04:34.598Z,54.50
2023-03-07T04:05:24.631Z,54.25
2023-03-07T04:06:14.672Z,54.29
2023-03-07T04:07:04.719Z,54.57
2023-03-07T04:07:54.756Z,54.60
2023-03-07T04:08:44.799Z,54.46
2023-03-07T04:09:34.864Z,54.29
2023-03-07T04:10:24.900Z,54.41
2023-03-07T04:11:15.010Z,54.61
2023-03-07T04:12:05.040Z,54.76
2023-03-07T04:12:55.104Z,54.52
2023-03-07T04:13:45.139Z,54.55
2023-03-07T04:14:35.205Z,54.53
2023-03-07T04:15:25.258Z,54.51
2023-03-07T04:16:15.382Z,54.21
2023-03-07T04:17:05.355Z,54.25
2023-03-07T04:17:55.454Z,55.00
2023-03-07T04:18:45.502Z,54.50
2023-03-07T04:19:35.548Z,54.30
2023-03-07T04:20:25.599Z,54.19
2023-03-07T04:21:15.635Z,54.53
2023-03-07T04:22:05.674Z,54.90
2023-03-07T04:22:55.717Z,54.43
2023-03-07T04:23:45.753Z,54.40
2023-03-07T04:24:35.860Z,54.61
2023-03-07T04:25:25.897Z,54.63
2023-03-07T04:26:15.938Z,54.91
2023-03-07T04:27:05.974Z,54.45
2023-03-07T04:27:56.018Z,54.36
2023-03-07T04:28:46.080Z,54.29
2023-03-07T04:29:36.115Z,54.41
2023-03-07T04:30:26.156Z,54.80
2023-03-07T04:31:16.287Z,54.41
2023-03-07T04:32:06.502Z,54.55
2023-03-07T04:32:56.359Z,54.30
2023-03-07T04:33:46.398Z,54.42
2023-03-07T04:34:36.455Z,54.51
2023-03-07T04:35:26.494Z,54.80
2023-03-07T04:36:16.553Z,54.54
2023-03-07T04:37:06.561Z,54.27
2023-03-07T04:37:56.697Z,54.65
2023-03-07T04:38:46.733Z,54.67
2023-03-07T04:39:36.803Z,54.50
2023-03-07T04:40:26.848Z,54.60
2023-03-07T04:41:16.926Z,54.36
2023-03-07T04:42:06.968Z,54.52
2023-03-07T04:42:57.010Z,54.45
2023-03-07T04:43:47.041Z,54.52
2023-03-07T04:44:37.101Z,54.71
2023-03-07T04:45:27.125Z,54.76
2023-03-07T04:46:17.262Z,54.14
2023-03-07T04:47:07.301Z,54.48
2023-03-07T04:47:57.309Z,54.37
2023-03-07T04:48:47.361Z,54.49
2023-03-07T04:49:37.407Z,54.63
2023-03-07T04:50:27.433Z,54.86
2023-03-07T04:51:17.579Z,54.27
2023-03-07T04:52:07.582Z,54.35
2023-03-07T04:52:57.628Z,54.25
2023-03-07T04:53:47.661Z,54.52
2023-03-07T04:54:37.733Z,55.05
2023-03-07T04:55:27.773Z,54.47
2023-03-07T04:56:17.816Z,54.21
2023-03-07T04:57:07.849Z,54.27
2023-03-07T04:57:57.957Z,54.27
2023-03-07T04:58:47.979Z,55.20
2023-03-07T04:59:38.064Z,54.34
2023-03-07T05:00:28.060Z,54.11
2023-03-07T05:01:18.152Z,54.59
2023-03-07T05:02:08.137Z,54.14
2023-03-07T05:02:58.250Z,54.12
2023-03-07T05:03:48.248Z,54.32
2023-03-07T05:04:38.493Z,54.74
2023-03-07T05:05:28.427Z,54.31
2023-03-07T05:06:18.508Z,54.00
2023-03-07T05:07:08.833Z,54.00
2023-03-07T05:07:58.916Z,54.31
2023-03-07T05:08:48.930Z,54.20
2023-03-07T05:09:39.028Z,54.13
2023-03-07T05:10:29.049Z,54.39
2023-03-07T05:11:19.127Z,54.23
2023-03-07T05:12:09.169Z,54.28
2023-03-07T05:12:59.210Z,54.57
2023-03-07T05:13:49.238Z,54.15
2023-03-07T05:14:39.345Z,54.04
2023-03-07T05:15:29.362Z,54.30
2023-03-07T05:16:19.710Z,54.33
2023-03-07T05:17:09.731Z,53.78
2023-03-07T05:17:59.777Z,54.06
2023-03-07T05:18:49.868Z,54.17
2023-03-07T05:19:39.879Z,53.98
2023-03-07T05:20:29.904Z,54.32
2023-03-07T05:21:19.991Z,54.07
2023-03-07T05:22:10.015Z,54.14
2023-03-07T05:23:00.099Z,53.64
2023-03-07T05:23:50.130Z,54.17
2023-03-07T05:24:40.193Z,53.94
2023-03-07T05:25:30.215Z,54.23
2023-03-07T05:26:20.297Z,53.95
2023-03-07T05:27:10.325Z,53.31
2023-03-07T05:28:00.371Z,53.70
2023-03-07T05:28:50.402Z,53.88
2023-03-07T05:29:40.511Z,54.00
2023-03-07T05:30:30.526Z,53.83
2023-03-07T05:31:20.641Z,54.06
2023-03-07T05:32:10.998Z,54.20
2023-03-07T05:33:00.972Z,53.61
2023-03-07T05:33:50.996Z,53.94
2023-03-07T05:34:41.080Z,54.17
2023-03-07T05:35:31.132Z,53.14
2023-03-07T05:36:21.130Z,53.69
2023-03-07T05:37:11.171Z,53.84
2023-03-07T05:38:01.216Z,54.12
2023-03-07T05:38:51.293Z,53.82
2023-03-07T05:39:41.395Z,53.61
2023-03-07T05:40:31.434Z,53.46
2023-03-07T05:41:21.461Z,53.69
2023-03-07T05:42:11.499Z,54.17
2023-03-07T05:43:01.580Z,53.80
2023-03-07T05:43:51.603Z,53.54
2023-03-07T05:44:41.705Z,53.65
2023-03-07T05:45:31.803Z,53.56
2023-03-07T05:46:21.876Z,53.72
2023-03-07T05:47:11.885Z,54.08
2023-03-07T05:48:01.968Z,53.62
2023-03-07T05:48:53.346Z,53.39
2023-03-07T05:49:42.077Z,53.97
2023-03-07T05:50:32.132Z,53.94
2023-03-07T05:51:22.196Z,53.76
2023-03-07T05:52:12.391Z,54.32
2023-03-07T05:53:02.473Z,53.64
2023-03-07T05:53:52.505Z,54.00
2023-03-07T05:54:42.627Z,54.13
2023-03-07T05:55:32.626Z,53.70
2023-03-07T05:56:22.682Z,53.76
2023-03-07T05:57:12.722Z,53.79
2023-03-07T05:58:02.765Z,53.65
2023-03-07T05:58:52.886Z,54.11
2023-03-07T05:59:42.937Z,53.53
2023-03-07T06:00:32.980Z,53.94
2023-03-07T06:01:23.064Z,54.10
2023-03-07T06:02:13.097Z,53.71
2023-03-07T06:03:03.244Z,53.33
2023-03-07T06:03:53.178Z,53.55
2023-03-07T06:04:43.220Z,53.15
2023-03-07T06:05:33.300Z,53.90
2023-03-07T06:06:23.393Z,54.20
2023-03-07T06:07:13.405Z,54.34
2023-03-07T06:08:03.448Z,53.92
2023-03-07T06:08:53.478Z,53.81
2023-03-07T06:09:43.561Z,54.12
2023-03-07T06:10:33.593Z,53.51
2023-03-07T06:11:23.669Z,53.56
2023-03-07T06:12:13.694Z,54.10
2023-03-07T06:13:03.772Z,53.96
2023-03-07T06:13:53.813Z,54.00
2023-03-07T06:14:44.172Z,53.18
2023-03-07T06:15:34.184Z,53.32
2023-03-07T06:16:24.275Z,53.25
2023-03-07T06:17:14.296Z,53.03
2023-03-07T06:18:04.383Z,54.42
2023-03-07T06:18:54.416Z,53.85
2023-03-07T06:19:44.497Z,53.78
2023-03-07T06:20:34.518Z,53.55
2023-03-07T06:21:24.562Z,53.19
2023-03-07T06:22:14.628Z,52.88
2023-03-07T06:23:04.640Z,52.65
2023-03-07T06:23:54.676Z,53.00
2023-03-07T06:24:44.741Z,53.73
2023-03-07T06:25:34.777Z,53.92
2023-03-07T06:26:24.808Z,54.06
2023-03-07T06:27:14.839Z,54.04
2023-03-07T06:28:04.958Z,53.35
2023-03-07T06:28:54.990Z,53.29
2023-03-07T06:29:45.064Z,53.40
2023-03-07T06:30:35.099Z,53.26
2023-03-07T06:31:25.202Z,53.68
2023-03-07T06:32:15.199Z,53.50
2023-03-07T06:33:05.266Z,53.67
2023-03-07T06:33:57.501Z,53.35
2023-03-07T06:34:45.400Z,53.14
2023-03-07T06:35:35.492Z,52.49
2023-03-07T06:36:25.496Z,53.52
2023-03-07T06:37:15.584Z,53.72
2023-03-07T06:38:05.640Z,53.14
2023-03-07T06:38:55.689Z,53.14
2023-03-07T06:39:45.787Z,53.80
2023-03-07T06:40:35.817Z,53.09
2023-03-07T06:41:26.090Z,53.34
2023-03-07T06:42:16.116Z,53.13
2023-03-07T06:43:06.158Z,53.22
2023-03-07T06:43:56.204Z,53.53
2023-03-07T06:44:46.255Z,53.52
2023-03-07T06:45:36.310Z,53.62
2023-03-07T06:46:26.342Z,52.72
2023-03-07T06:47:16.378Z,53.09
2023-03-07T06:48:06.473Z,52.59
2023-03-07T06:48:56.542Z,53.46
2023-03-07T06:49:46.608Z,53.55
2023-03-07T06:50:36.646Z,53.19
2023-03-07T06:51:26.684Z,53.66
2023-03-07T06:52:16.717Z,53.89
2023-03-07T06:53:06.802Z,52.79
2023-03-07T06:53:56.894Z,52.91
2023-03-07T06:54:46.902Z,53.64
2023-03-07T06:55:36.930Z,53.53
2023-03-07T06:56:27.019Z,53.56
2023-03-07T06:57:17.049Z,53.56
2023-03-07T06:58:07.085Z,53.62
2023-03-07T06:58:57.123Z,53.43
2023-03-07T06:59:47.213Z,52.75
2023-03-07T07:00:37.256Z,53.22
2023-03-07T07:01:27.299Z,53.47
2023-03-07T07:02:17.499Z,53.50
2023-03-07T07:03:07.560Z,52.48
2023-03-07T07:03:57.467Z,53.23
2023-03-07T07:04:47.563Z,53.37
2023-03-07T07:05:37.609Z,53.19
2023-03-07T07:06:27.646Z,53.36
2023-03-07T07:07:17.685Z,53.10
2023-03-07T07:08:07.728Z,52.76
2023-03-07T07:08:57.774Z,53.28
2023-03-07T07:09:47.890Z,53.48
2023-03-07T07:10:37.843Z,53.19
2023-03-07T07:11:27.894Z,52.63
2023-03-07T07:12:17.917Z,52.62
2023-03-07T07:13:07.971Z,52.92
2023-03-07T07:13:58.026Z,53.12
2023-03-07T07:14:48.129Z,53.27
2023-03-07T07:15:38.180Z,53.65
2023-03-07T07:16:28.308Z,52.90
2023-03-07T07:17:18.244Z,53.66
2023-03-07T07:18:11.054Z,55.02
2023-03-07T07:18:58.370Z,53.44
2023-03-07T07:19:48.457Z,53.66
2023-03-07T07:20:38.487Z,53.33
2023-03-07T07:21:28.565Z,53.94
2023-03-07T07:22:18.632Z,53.83
2023-03-07T07:23:08.707Z,54.21
2023-03-07T07:23:58.730Z,54.05
2023-03-07T07:24:48.844Z,52.83
2023-03-07T07:25:38.899Z,53.78
2023-03-07T07:26:28.948Z,54.00
2023-03-07T07:27:18.994Z,53.68
2023-03-07T07:28:09.034Z,53.55
2023-03-07T07:28:59.076Z,53.77
2023-03-07T07:29:49.142Z,53.55
2023-03-07T07:30:39.185Z,53.95
2023-03-07T07:31:29.239Z,53.90
2023-03-07T07:32:19.575Z,53.44
2023-03-07T07:33:09.507Z,53.31
2023-03-07T07:33:59.373Z,53.67
2023-03-07T07:34:49.477Z,53.95
2023-03-07T07:35:39.570Z,53.83
2023-03-07T07:36:29.563Z,54.13
2023-03-07T07:37:19.621Z,54.25
2023-03-07T07:38:09.698Z,54.01
2023-03-07T07:38:59.737Z,53.75
2023-03-07T07:39:49.791Z,54.02
2023-03-07T07:40:39.822Z,54.63
2023-03-07T07:41:29.903Z,54.14
2023-03-07T07:42:19.911Z,53.86
2023-03-07T07:43:09.996Z,53.89
2023-03-07T07:44:00.036Z,53.79
2023-03-07T07:44:50.090Z,53.80
2023-03-07T07:45:40.187Z,53.97
2023-03-07T07:46:30.202Z,53.94
2023-03-07T07:47:20.262Z,54.50
2023-03-07T07:48:10.343Z,54.27
2023-03-07T07:49:00.374Z,53.79
2023-03-07T07:49:50.478Z,54.54
2023-03-07T07:50:40.510Z,53.97
2023-03-07T07:51:30.596Z,54.18
2023-03-07T07:52:20.629Z,53.72
2023-03-07T07:53:10.676Z,54.00
2023-03-07T07:54:00.708Z,53.98
2023-03-07T07:54:50.803Z,54.39
2023-03-07T07:55:40.839Z,54.50
2023-03-07T07:56:30.877Z,54.74
2023-03-07T07:57:22.720Z,54.64
2023-03-07T07:58:10.950Z,54.49
2023-03-07T07:59:00.995Z,54.31
2023-03-07T07:59:51.105Z,54.34
2023-03-07T08:00:41.089Z,54.47
2023-03-07T08:01:31.124Z,54.74
2023-03-07T08:02:21.296Z,53.87
2023-03-07T08:03:11.280Z,54.21
2023-03-07T08:04:01.290Z,54.34
2023-03-07T08:04:51.390Z,53.71
2023-03-07T08:05:41.417Z,54.23
2023-03-07T08:06:31.458Z,54.46
2023-03-07T08:07:21.492Z,53.95
2023-03-07T08:08:11.533Z,53.96
2023-03-07T08:09:01.608Z,54.07
2023-03-07T08:09:51.714Z,53.77
2023-03-07T08:10:41.748Z,53.57
2023-03-07T08:11:31.836Z,53.70
2023-03-07T08:12:21.873Z,53.67
2023-03-07T08:13:11.936Z,54.05
2023-03-07T08:14:01.940Z,54.07
2023-03-07T08:14:52.006Z,54.38
2023-03-07T08:15:42.108Z,54.15
2023-03-07T08:16:32.129Z,53.87
2023-03-07T08:17:22.185Z,54.18
2023-03-07T08:18:12.244Z,54.30
2023-03-07T08:19:02.275Z,54.58
2023-03-07T08:19:52.371Z,53.82
2023-03-07T08:20:42.415Z,54.44
2023-03-07T08:21:32.453Z,54.18
2023-03-07T08:22:22.529Z,54.25
2023-03-07T08:23:12.570Z,54.22
2023-03-07T08:24:03.630Z,54.10
2023-03-07T08:24:52.695Z,53.94
2023-03-07T08:25:42.726Z,53.78
2023-03-07T08:26:32.773Z,53.57
2023-03-07T08:27:22.801Z,54.14
2023-03-07T08:28:13.388Z,53.98
2023-03-07T08:29:02.972Z,54.01
2023-03-07T08:29:53.016Z,53.87
2023-03-07T08:30:43.040Z,54.24
2023-03-07T08:31:33.192Z,54.09
2023-03-07T08:32:23.289Z,54.21
2023-03-07T08:33:13.236Z,54.35
2023-03-07T08:34:03.269Z,53.93
2023-03-07T08:34:53.368Z,53.72
2023-03-07T08:35:43.469Z,53.70
2023-03-07T08:36:33.456Z,53.81
2023-03-07T08:37:23.483Z,53.59
2023-03-07T08:38:13.522Z,53.57
2023-03-07T08:39:03.557Z,54.37
2023-03-07T08:39:53.629Z,54.42
2023-03-07T08:40:43.652Z,53.87
2023-03-07T08:41:33.693Z,53.76
2023-03-07T08:42:23.791Z,54.60
2023-03-07T08:43:13.850Z,53.88
2023-03-07T08:44:03.885Z,53.57
2023-03-07T08:44:54.261Z,54.04
2023-03-07T08:45:44.270Z,54.04
2023-03-07T08:46:34.389Z,54.01
2023-03-07T08:47:24.374Z,54.19
2023-03-07T08:48:14.457Z,54.13
2023-03-07T08:49:04.490Z,54.04
2023-03-07T08:49:54.607Z,54.18
2023-03-07T08:50:44.632Z,53.70
2023-03-07T08:51:34.671Z,54.29
2023-03-07T08:52:24.712Z,53.38
2023-03-07T08:53:14.753Z,53.85
2023-03-07T08:54:04.783Z,54.17
2023-03-07T08:54:54.889Z,53.93
2023-03-07T08:55:44.917Z,53.89
2023-03-07T08:56:34.996Z,54.47
2023-03-07T08:57:25.044Z,54.22
2023-03-07T08:58:15.117Z,53.89
2023-03-07T08:59:05.144Z,54.02
2023-03-07T08:59:55.203Z,53.82
2023-03-07T09:00:45.277Z,54.04
2023-03-07T09:01:35.311Z,53.74
2023-03-07T09:02:25.324Z,53.97
2023-03-07T09:03:15.372Z,54.28
2023-03-07T09:04:05.401Z,53.73
2023-03-07T09:04:55.632Z,53.89
2023-03-07T09:05:45.565Z,54.09
2023-03-07T09:06:35.649Z,54.46
2023-03-07T09:07:25.676Z,54.42
2023-03-07T09:08:15.714Z,54.39
2023-03-07T09:09:05.746Z,54.31
2023-03-07T09:09:55.808Z,53.90
2023-03-07T09:10:45.839Z,54.01
2023-03-07T09:11:35.921Z,53.61
2023-03-07T09:12:25.958Z,54.12
2023-03-07T09:13:18.254Z,54.09
2023-03-07T09:14:06.069Z,54.68
2023-03-07T09:14:56.183Z,53.91
2023-03-07T09:15:46.300Z,53.67
2023-03-07T09:16:36.449Z,53.86
2023-03-07T09:17:26.378Z,53.97
2023-03-07T09:18:16.408Z,53.87
2023-03-07T09:19:06.443Z,53.31
2023-03-07T09:19:56.553Z,53.67
2023-03-07T09:20:46.577Z,53.92
2023-03-07T09:21:36.632Z,54.37
2023-03-07T09:22:26.706Z,54.15
2023-03-07T09:23:16.800Z,53.31
2023-03-07T09:24:06.838Z,53.37
2023-03-07T09:24:56.899Z,53.10
2023-03-07T09:25:46.970Z,53.30
2023-03-07T09:26:36.994Z,53.37
2023-03-07T09:27:27.066Z,53.44
2023-03-07T09:28:17.074Z,53.41
2023-03-07T09:29:07.164Z,54.06
2023-03-07T09:29:57.245Z,53.77
2023-03-07T09:30:47.275Z,54.10
2023-03-07T09:31:37.501Z,54.15
2023-03-07T09:32:27.548Z,53.77
2023-03-07T09:33:17.468Z,54.01
2023-03-07T09:34:07.498Z,53.96
2023-03-07T09:34:57.602Z,54.52
2023-03-07T09:35:47.779Z,54.21
2023-03-07T09:36:37.880Z,54.61
2023-03-07T09:37:27.902Z,54.43
2023-03-07T09:38:18.233Z,54.05
2023-03-07T09:39:08.270Z,54.19
2023-03-07T09:39:58.335Z,54.23
2023-03-07T09:40:48.359Z,54.66
2023-03-07T09:41:38.409Z,54.07
2023-03-07T09:42:28.454Z,54.24
2023-03-07T09:43:18.530Z,54.42
2023-03-07T09:44:08.546Z,54.10
2023-03-07T09:44:58.643Z,54.26
2023-03-07T09:45:48.722Z,53.90
2023-03-07T09:46:38.729Z,54.02
2023-03-07T09:47:28.769Z,54.10
2023-03-07T09:48:18.872Z,53.81
2023-03-07T09:49:08.887Z,53.83
2023-03-07T09:49:58.977Z,53.88
2023-03-07T09:50:49.096Z,53.52
2023-03-07T09:51:39.083Z,53.74
2023-03-07T09:52:29.125Z,53.82
2023-03-07T09:53:19.151Z,53.75
2023-03-07T09:54:09.187Z,53.69
2023-03-07T09:54:59.285Z,54.09
2023-03-07T09:55:49.322Z,55.33
2023-03-07T09:56:39.362Z,54.29
2023-03-07T09:57:29.403Z,54.83
2023-03-07T09:58:19.454Z,55.44
2023-03-07T09:59:21.933Z,54.44
2023-03-07T10:00:00.589Z,53.69
2023-03-07T10:00:49.603Z,53.62
2023-03-07T10:01:39.672Z,53.48
2023-03-07T10:02:29.752Z,53.41
2023-03-07T10:03:19.858Z,53.45
2023-03-07T10:04:09.971Z,54.12
2023-03-07T10:04:59.930Z,53.85
2023-03-07T10:05:50.091Z,53.53
2023-03-07T10:06:40.175Z,53.55
2023-03-07T10:07:30.212Z,53.93
2023-03-07T10:08:20.236Z,53.86
2023-03-07T10:09:10.368Z,53.56
2023-03-07T10:10:00.396Z,53.68
2023-03-07T10:10:50.403Z,53.57
2023-03-07T10:11:40.486Z,53.80
2023-03-07T10:12:30.519Z,53.78
2023-03-07T10:13:20.539Z,53.90
2023-03-07T10:14:10.584Z,53.95
2023-03-07T10:15:00.629Z,53.83
2023-03-07T10:15:50.689Z,53.81
2023-03-07T10:16:40.751Z,53.60
2023-03-07T10:17:30.764Z,54.13
2023-03-07T10:18:20.799Z,53.80
2023-03-07T10:19:10.903Z,53.30
2023-03-07T10:20:00.963Z,53.63
2023-03-07T10:20:51.015Z,54.19
2023-03-07T10:21:41.049Z,53.35
2023-03-07T10:22:31.089Z,53.70
2023-03-07T10:23:22.691Z,54.33
2023-03-07T10:24:11.163Z,54.12
2023-03-07T10:25:01.207Z,54.12
2023-03-07T10:25:51.289Z,53.45
2023-03-07T10:26:41.321Z,53.45
2023-03-07T10:27:31.400Z,53.70
2023-03-07T10:28:21.430Z,53.47
2023-03-07T10:29:11.483Z,53.71
2023-03-07T10:30:01.526Z,53.42
2023-03-07T10:30:51.623Z,53.17
2023-03-07T10:31:41.700Z,53.06
2023-03-07T10:32:31.763Z,53.02
2023-03-07T10:33:21.802Z,53.48
2023-03-07T10:34:17.597Z,53.91
2023-03-07T10:35:02.945Z,53.67
2023-03-07T10:35:52.061Z,53.74
2023-03-07T10:36:42.007Z,53.63
2023-03-07T10:37:32.036Z,53.47
2023-03-07T10:38:22.107Z,53.92
2023-03-07T10:39:12.186Z,54.45
2023-03-07T10:40:04.812Z,54.34
2023-03-07T10:40:52.315Z,53.93
2023-03-07T10:41:42.347Z,54.30
2023-03-07T10:42:32.422Z,54.41
2023-03-07T10:43:22.458Z,54.50
2023-03-07T10:44:12.500Z,54.70